Terminal Aerodrome Forecast
Issued by NWS Charleston, WV

Current Version | Previous Version | Graphics & Text | Print | Product List | Glossary On
Versions: 1 2 3 4 5 6 7 8 9 10 11 12 13 14 15 16 17 18 19 20 21 22 23 24 25 26 27
421
FTUS41 KRLX 170909 AAE
TAFBKW
TAF AMD
KBKW 170909Z 1709/1806 33006KT 6SM -SN OVC012
      TEMPO 1709/1713 3SM -SN OVC006
     FM171700 31007KT P6SM SCT015
     FM180200 29007KT P6SM BKN010=

USA.gov is the U.S. government's official web portal to all federal, state and local government web resources and services.